createdAt,value
2023-03-17T00:04:07.008Z,59.43
2023-03-17T00:09:14.592Z,59.68
2023-03-17T00:14:17.719Z,59.83
2023-03-17T00:19:29.667Z,59.88
2023-03-17T00:24:33.533Z,60.19
2023-03-17T00:29:36.273Z,60.42
2023-03-17T00:34:40.589Z,60.62
2023-03-17T00:39:44.879Z,60.65
2023-03-17T00:44:47.634Z,60.90
2023-03-17T00:49:52.060Z,60.83
2023-03-17T00:54:54.853Z,61.23
2023-03-17T00:59:57.703Z,61.05
2023-03-17T01:05:06.677Z,61.16
2023-03-17T01:10:16.427Z,61.49
2023-03-17T01:15:21.585Z,61.56
2023-03-17T01:20:28.726Z,61.67
2023-03-17T01:25:32.605Z,61.62
2023-03-17T01:30:37.468Z,61.90
2023-03-17T01:35:43.627Z,61.93
2023-03-17T01:40:49.440Z,62.00
2023-03-17T01:46:27.490Z,62.02
2023-03-17T01:51:35.828Z,62.19
2023-03-17T01:56:41.990Z,62.31
2023-03-17T02:01:48.588Z,62.36
2023-03-17T02:06:58.465Z,62.58
2023-03-17T02:12:03.858Z,62.60
2023-03-17T02:17:07.313Z,62.76
2023-03-17T02:22:12.362Z,62.82
2023-03-17T02:27:19.105Z,63.20
2023-03-17T02:32:22.173Z,63.16
2023-03-17T02:37:26.441Z,63.25
2023-03-17T02:42:29.812Z,63.26
2023-03-17T02:47:34.699Z,63.60
2023-03-17T02:52:38.801Z,63.49
2023-03-17T02:57:41.876Z,63.73
2023-03-17T03:02:44.720Z,63.84
2023-03-17T03:07:48.832Z,63.83
2023-03-17T03:12:51.967Z,63.83
2023-03-17T03:17:54.789Z,64.06
2023-03-17T03:22:58.906Z,64.23
2023-03-17T03:28:01.685Z,64.53
2023-03-17T03:33:05.036Z,64.56
2023-03-17T03:38:09.903Z,64.35
2023-03-17T03:43:22.884Z,64.73
2023-03-17T03:48:25.994Z,65.03
2023-03-17T03:53:30.282Z,64.81
2023-03-17T03:58:33.023Z,64.89
2023-03-17T04:03:36.206Z,65.04
2023-03-17T04:08:40.290Z,65.37
2023-03-17T04:13:43.171Z,65.46
2023-03-17T04:18:45.913Z,65.46
2023-03-17T04:23:50.050Z,65.73
2023-03-17T04:28:52.788Z,65.66
2023-03-17T04:33:55.717Z,65.48
2023-03-17T04:38:59.933Z,65.70
2023-03-17T04:44:03.199Z,65.71
2023-03-17T04:49:06.675Z,65.63
2023-03-17T04:54:11.241Z,65.65
2023-03-17T04:59:14.169Z,65.58
2023-03-17T05:04:30.832Z,65.56
2023-03-17T05:09:36.077Z,65.42
2023-03-17T05:14:39.047Z,65.50
2023-03-17T05:19:42.451Z,65.42
2023-03-17T05:24:47.535Z,65.40
2023-03-17T05:29:50.544Z,65.46
2023-03-17T05:34:53.325Z,65.33
2023-03-17T05:39:57.669Z,65.42
2023-03-17T05:45:00.687Z,65.33
2023-03-17T05:50:04.771Z,65.35
2023-03-17T05:55:10.147Z,65.42
2023-03-17T06:00:16.117Z,65.41
2023-03-17T06:05:19.136Z,65.33
2023-03-17T06:10:23.629Z,65.37
2023-03-17T06:15:26.925Z,65.38
2023-03-17T06:20:29.702Z,65.44
2023-03-17T06:25:34.536Z,65.38
2023-03-17T06:30:40.531Z,65.31
2023-03-17T06:35:43.598Z,65.33
2023-03-17T06:40:47.956Z,65.20
2023-03-17T06:45:51.570Z,65.23
2023-03-17T06:50:54.430Z,65.21
2023-03-17T06:55:58.688Z,65.33
2023-03-17T07:01:01.430Z,65.19
2023-03-17T07:06:04.368Z,64.91
2023-03-17T07:11:09.368Z,65.08
2023-03-17T07:16:15.147Z,65.07
2023-03-17T07:21:17.960Z,65.12
2023-03-17T07:26:22.386Z,65.18
2023-03-17T07:31:25.437Z,65.22
2023-03-17T07:36:28.332Z,65.04
2023-03-17T07:41:32.564Z,64.82
2023-03-17T07:46:35.660Z,64.71
2023-03-17T07:51:38.735Z,64.66
2023-03-17T07:56:43.995Z,64.05
2023-03-17T08:01:46.879Z,62.95
2023-03-17T08:06:49.688Z,61.09
2023-03-17T08:11:54.207Z,58.73
2023-03-17T08:16:57.272Z,57.79
2023-03-17T08:22:00.315Z,57.36
2023-03-17T08:27:05.041Z,57.36
2023-03-17T08:32:08.734Z,57.64
2023-03-17T08:37:12.186Z,57.74
2023-03-17T08:42:17.069Z,58.03
2023-03-17T08:47:19.953Z,58.31
2023-03-17T08:52:23.126Z,58.38
2023-03-17T08:57:27.618Z,58.45
2023-03-17T09:02:30.665Z,58.62
2023-03-17T09:07:33.682Z,58.55
2023-03-17T09:12:38.537Z,58.38
2023-03-17T09:17:43.693Z,58.55
2023-03-17T09:22:47.692Z,58.59
2023-03-17T09:27:52.070Z,58.71
2023-03-17T09:32:54.930Z,58.81
2023-03-17T09:37:57.911Z,59.24
2023-03-17T09:43:13.896Z,59.74
2023-03-17T09:48:29.615Z,60.39
2023-03-17T09:53:36.490Z,60.77
2023-03-17T09:58:45.377Z,61.36
2023-03-17T10:03:50.394Z,62.06
2023-03-17T10:08:59.770Z,62.58
2023-03-17T10:14:09.402Z,63.07
2023-03-17T10:19:25.765Z,63.00
2023-03-17T10:24:32.546Z,62.99
2023-03-17T10:29:37.028Z,62.66
2023-03-17T10:34:41.552Z,62.53
2023-03-17T10:39:49.426Z,62.51
2023-03-17T10:44:56.087Z,62.12
2023-03-17T10:50:02.521Z,61.82
2023-03-17T10:55:07.319Z,61.49
2023-03-17T11:00:20.021Z,61.02
2023-03-17T11:05:25.395Z,60.55
2023-03-17T11:10:30.219Z,46.36
2023-03-17T11:15:36.564Z,49.80
2023-03-17T11:20:54.769Z,53.76
2023-03-17T11:26:10.293Z,55.23
2023-03-17T11:31:24.598Z,57.02
2023-03-17T11:36:43.359Z,58.75
2023-03-17T11:41:55.734Z,59.51
2023-03-17T11:47:06.696Z,53.79
2023-03-17T11:52:22.187Z,56.39
2023-03-17T11:57:32.178Z,56.78
2023-03-17T12:02:44.058Z,54.48
2023-03-17T12:07:51.290Z,52.96
2023-03-17T12:12:59.116Z,48.19
2023-03-17T12:18:10.900Z,44.27
2023-03-17T12:23:18.836Z,43.77
2023-03-17T12:28:27.136Z,42.68
2023-03-17T12:33:36.056Z,42.60
2023-03-17T12:38:44.643Z,43.84
2023-03-17T12:44:02.452Z,39.80
2023-03-17T12:49:32.612Z,42.83
2023-03-17T12:54:38.245Z,42.92
2023-03-17T12:59:44.177Z,44.19
2023-03-17T13:04:58.055Z,45.24
2023-03-17T13:10:34.716Z,46.04
2023-03-17T13:15:58.172Z,46.82
2023-03-17T13:21:16.157Z,47.52
2023-03-17T13:26:22.057Z,48.04
2023-03-17T13:31:36.728Z,47.73
2023-03-17T13:36:48.854Z,47.99
2023-03-17T13:42:15.699Z,48.44
2023-03-17T13:47:34.668Z,47.91
2023-03-17T13:52:46.778Z,47.93
2023-03-17T13:57:57.226Z,48.46
2023-03-17T14:03:05.540Z,50.45
2023-03-17T14:08:18.334Z,52.98
2023-03-17T14:13:26.285Z,53.72
2023-03-17T14:18:33.335Z,54.72
2023-03-17T14:23:37.555Z,54.56
2023-03-17T14:28:41.328Z,56.06
2023-03-17T14:33:44.138Z,54.13
2023-03-17T14:38:50.879Z,52.36
2023-03-17T14:43:58.369Z,51.84
2023-03-17T14:49:05.078Z,51.01
2023-03-17T14:54:15.539Z,50.44
2023-03-17T14:59:21.161Z,50.70
2023-03-17T15:04:26.702Z,50.56
2023-03-17T15:09:36.272Z,50.58
2023-03-17T15:14:41.752Z,51.01
2023-03-17T15:19:47.631Z,50.91
2023-03-17T15:25:00.979Z,51.19
2023-03-17T15:30:04.329Z,51.52
2023-03-17T15:35:12.131Z,50.37
2023-03-17T15:40:16.708Z,48.05
2023-03-17T15:45:19.577Z,48.82
2023-03-17T15:50:28.430Z,48.81
2023-03-17T15:55:33.542Z,49.04
2023-03-17T16:00:37.073Z,49.09
2023-03-17T16:05:40.409Z,48.94
2023-03-17T16:10:46.283Z,49.01
2023-03-17T16:15:54.653Z,49.15
2023-03-17T16:20:58.249Z,49.10
2023-03-17T16:26:14.200Z,49.20
2023-03-17T16:31:22.564Z,49.18
2023-03-17T16:36:26.563Z,49.23
2023-03-17T16:41:36.498Z,49.16
2023-03-17T16:46:39.926Z,49.46
2023-03-17T16:56:47.106Z,50.00
2023-03-17T17:01:50.043Z,50.08
2023-03-17T17:06:53.057Z,50.32
2023-03-17T17:11:58.563Z,50.02
2023-03-17T17:17:01.489Z,49.52
2023-03-17T17:22:04.439Z,49.72
2023-03-17T17:27:08.859Z,50.14
2023-03-17T17:32:12.576Z,50.53
2023-03-17T17:37:16.011Z,49.92
2023-03-17T17:42:20.942Z,50.23
2023-03-17T17:47:24.320Z,50.33
2023-03-17T17:52:27.592Z,50.18
2023-03-17T17:57:31.861Z,50.23
2023-03-17T18:02:34.679Z,50.31
2023-03-17T18:07:37.745Z,50.33
2023-03-17T18:12:41.973Z,50.50
2023-03-17T18:17:45.117Z,50.69
2023-03-17T18:22:47.955Z,50.67
2023-03-17T18:27:52.292Z,50.81
2023-03-17T18:32:59.193Z,50.98
2023-03-17T18:38:02.827Z,50.79
2023-03-17T18:43:07.045Z,51.27
2023-03-17T18:48:10.111Z,52.06
2023-03-17T18:53:13.415Z,52.22
2023-03-17T18:58:17.973Z,52.41
2023-03-17T19:08:24.025Z,53.17
2023-03-17T19:13:28.237Z,53.30
2023-03-17T19:18:31.869Z,53.49
2023-03-17T19:23:35.776Z,53.58
2023-03-17T19:28:39.912Z,53.74
2023-03-17T19:33:42.770Z,53.77
2023-03-17T19:38:45.754Z,53.87
2023-03-17T19:43:49.894Z,53.96
2023-03-17T19:48:53.717Z,54.03
2023-03-17T19:53:57.522Z,54.24
2023-03-17T19:59:02.204Z,54.31
2023-03-17T20:04:06.910Z,54.35
2023-03-17T20:09:10.281Z,54.42
2023-03-17T20:14:14.675Z,54.42
2023-03-17T20:19:17.883Z,54.12
2023-03-17T20:24:20.681Z,54.47
2023-03-17T20:29:25.727Z,54.58
2023-03-17T20:34:28.647Z,54.68
2023-03-17T20:39:32.435Z,54.54
2023-03-17T20:44:36.737Z,54.21
2023-03-17T20:49:39.481Z,54.35
2023-03-17T20:54:42.526Z,54.69
2023-03-17T20:59:46.942Z,54.67
2023-03-17T21:04:49.732Z,54.74
2023-03-17T21:09:56.322Z,54.06
2023-03-17T21:15:00.665Z,54.79
2023-03-17T21:20:03.921Z,54.73
2023-03-17T21:25:07.930Z,53.76
2023-03-17T21:30:14.404Z,54.50
2023-03-17T21:35:18.094Z,54.76
2023-03-17T21:40:22.411Z,54.56
2023-03-17T21:45:26.642Z,54.70
2023-03-17T21:50:30.680Z,55.07
2023-03-17T21:55:33.539Z,55.03
2023-03-17T22:00:45.198Z,55.15
2023-03-17T22:05:50.701Z,55.34
2023-03-17T22:10:53.795Z,55.15
2023-03-17T22:16:00.616Z,55.31
2023-03-17T22:21:03.755Z,55.49
2023-03-17T22:26:06.621Z,55.36
2023-03-17T22:31:16.308Z,55.14
2023-03-17T22:36:19.655Z,55.11
2023-03-17T22:41:24.173Z,55.16
2023-03-17T22:46:28.365Z,55.20
2023-03-17T22:51:31.270Z,55.32
2023-03-17T22:56:33.990Z,55.53
2023-03-17T23:01:38.131Z,55.47
2023-03-17T23:06:41.786Z,55.49
2023-03-17T23:11:44.597Z,55.71
2023-03-17T23:16:48.851Z,55.76
2023-03-17T23:21:51.689Z,55.90
2023-03-17T23:26:54.456Z,55.87
2023-03-17T23:31:58.785Z,55.72
2023-03-17T23:37:01.597Z,55.92
2023-03-17T23:42:04.771Z,55.95
2023-03-17T23:47:10.651Z,55.93
2023-03-17T23:52:13.858Z,56.18
2023-03-17T23:57:17.137Z,56.04
